sensor_id;sensor_type;location;lat;lon;timestamp;pressure;altitude;pressure_sealevel;temperature;humidity
37202;BME280;37799;52.390;6.136;2023-05-09T00:01:33;101788.63;;;14.98;100.00
37202;BME280;37799;52.390;6.136;2023-05-09T00:03:59;101788.63;;;14.98;100.00
37202;BME280;37799;52.390;6.136;2023-05-09T00:06:25;101775.66;;;14.95;100.00
37202;BME280;37799;52.390;6.136;2023-05-09T00:08:54;101763.75;;;14.86;100.00
37202;BME280;37799;52.390;6.136;2023-05-09T00:11:20;101755.97;;;14.85;100.00
37202;BME280;37799;52.390;6.136;2023-05-09T00:13:46;101743.00;;;14.82;100.00
37202;BME280;37799;52.390;6.136;2023-05-09T00:16:12;101744.09;;;14.74;100.00
37202;BME280;37799;52.390;6.136;2023-05-09T00:18:37;101744.25;;;14.68;100.00
37202;BME280;37799;52.390;6.136;2023-05-09T00:21:06;101746.88;;;14.68;100.00
37202;BME280;37799;52.390;6.136;2023-05-09T00:23:32;101746.97;;;14.65;100.00
37202;BME280;37799;52.390;6.136;2023-05-09T00:25:58;101747.06;;;14.62;100.00
37202;BME280;37799;52.390;6.136;2023-05-09T00:28:23;101747.91;;;14.63;100.00
37202;BME280;37799;52.390;6.136;2023-05-09T00:30:49;101745.50;;;14.55;100.00
37202;BME280;37799;52.390;6.136;2023-05-09T00:33:15;101743.72;;;14.57;100.00
37202;BME280;37799;52.390;6.136;2023-05-09T00:35:40;101733.38;;;14.54;100.00
37202;BME280;37799;52.390;6.136;2023-05-09T00:38:05;101737.69;;;14.55;100.00
37202;BME280;37799;52.390;6.136;2023-05-09T00:40:31;101740.03;;;14.64;100.00
37202;BME280;37799;52.390;6.136;2023-05-09T00:42:58;101730.63;;;14.60;100.00
37202;BME280;37799;52.390;6.136;2023-05-09T00:45:23;101726.22;;;14.62;100.00
37202;BME280;37799;52.390;6.136;2023-05-09T00:47:49;101722.94;;;14.54;100.00
37202;BME280;37799;52.390;6.136;2023-05-09T00:50:14;101722.78;;;14.60;100.00
37202;BME280;37799;52.390;6.136;2023-05-09T00:52:40;101722.94;;;14.54;100.00
37202;BME280;37799;52.390;6.136;2023-05-09T00:55:06;101715.28;;;14.50;100.00
37202;BME280;37799;52.390;6.136;2023-05-09T00:57:32;101710.16;;;14.47;100.00
37202;BME280;37799;52.390;6.136;2023-05-09T00:59:59;101708.34;;;14.49;100.00
37202;BME280;37799;52.390;6.136;2023-05-09T01:02:25;101704.94;;;14.47;100.00
37202;BME280;37799;52.390;6.136;2023-05-09T01:04:51;101698.09;;;14.41;100.00
37202;BME280;37799;52.390;6.136;2023-05-09T01:07:30;101695.53;;;14.39;100.00
37202;BME280;37799;52.390;6.136;2023-05-09T01:10:06;101693.78;;;14.40;100.00
37202;BME280;37799;52.390;6.136;2023-05-09T01:12:58;101691.09;;;14.43;100.00
37202;BME280;37799;52.390;6.136;2023-05-09T01:15:50;101690.28;;;14.41;100.00
37202;BME280;37799;52.390;6.136;2023-05-09T01:21:07;101685.88;;;14.44;100.00
37202;BME280;37799;52.390;6.136;2023-05-09T01:27:09;101677.22;;;14.42;100.00
37202;BME280;37799;52.390;6.136;2023-05-09T01:29:47;101674.75;;;14.38;100.00
37202;BME280;37799;52.390;6.136;2023-05-09T01:32:18;101669.53;;;14.38;100.00
37202;BME280;37799;52.390;6.136;2023-05-09T01:34:46;101669.78;;;14.29;100.00
37202;BME280;37799;52.390;6.136;2023-05-09T01:37:14;101667.91;;;14.34;100.00
37202;BME280;37799;52.390;6.136;2023-05-09T01:39:44;101665.22;;;14.37;100.00
37202;BME280;37799;52.390;6.136;2023-05-09T01:42:11;101669.63;;;14.35;100.00
37202;BME280;37799;52.390;6.136;2023-05-09T01:44:40;101666.50;;;14.22;100.00
37202;BME280;37799;52.390;6.136;2023-05-09T01:47:07;101659.69;;;14.16;100.00
37202;BME280;37799;52.390;6.136;2023-05-09T01:49:37;101662.88;;;14.28;100.00
37202;BME280;37799;52.390;6.136;2023-05-09T01:52:07;101654.25;;;14.26;100.00
37202;BME280;37799;52.390;6.136;2023-05-09T01:54:34;101651.72;;;14.23;100.00
37202;BME280;37799;52.390;6.136;2023-05-09T01:57:02;101659.25;;;14.32;100.00
37202;BME280;37799;52.390;6.136;2023-05-09T01:59:28;101654.00;;;14.35;100.00
37202;BME280;37799;52.390;6.136;2023-05-09T02:01:54;101656.66;;;14.32;100.00
37202;BME280;37799;52.390;6.136;2023-05-09T02:04:20;101658.59;;;14.25;100.00
37202;BME280;37799;52.390;6.136;2023-05-09T02:06:47;101656.72;;;14.30;100.00
37202;BME280;37799;52.390;6.136;2023-05-09T02:09:19;101654.91;;;14.34;100.00
37202;BME280;37799;52.390;6.136;2023-05-09T02:11:45;101657.41;;;14.37;100.00
37202;BME280;37799;52.390;6.136;2023-05-09T02:14:12;101653.00;;;14.39;100.00
37202;BME280;37799;52.390;6.136;2023-05-09T02:16:38;101647.75;;;14.40;100.00
37202;BME280;37799;52.390;6.136;2023-05-09T02:19:05;101648.47;;;14.47;100.00
37202;BME280;37799;52.390;6.136;2023-05-09T02:21:30;101639.66;;;14.51;100.00
37202;BME280;37799;52.390;6.136;2023-05-09T02:23:56;101642.41;;;14.45;100.00
37202;BME280;37799;52.390;6.136;2023-05-09T02:26:23;101644.22;;;14.41;100.00
37202;BME280;37799;52.390;6.136;2023-05-09T02:28:50;101644.16;;;14.46;100.00
37202;BME280;37799;52.390;6.136;2023-05-09T02:31:18;101640.59;;;14.49;100.00
37202;BME280;37799;52.390;6.136;2023-05-09T02:33:44;101635.34;;;14.50;100.00
37202;BME280;37799;52.390;6.136;2023-05-09T02:36:13;101632.63;;;14.53;100.00
37202;BME280;37799;52.390;6.136;2023-05-09T02:38:39;101632.63;;;14.53;100.00
37202;BME280;37799;52.390;6.136;2023-05-09T02:41:06;101620.31;;;14.58;100.00
37202;BME280;37799;52.390;6.136;2023-05-09T02:43:31;101623.75;;;14.60;100.00
37202;BME280;37799;52.390;6.136;2023-05-09T02:45:56;101621.13;;;14.60;100.00
37202;BME280;37799;52.390;6.136;2023-05-09T02:48:22;101624.81;;;14.53;100.00
37202;BME280;37799;52.390;6.136;2023-05-09T02:50:47;101625.81;;;14.49;100.00
37202;BME280;37799;52.390;6.136;2023-05-09T02:53:12;101612.72;;;14.51;100.00
37202;BME280;37799;52.390;6.136;2023-05-09T02:55:38;101613.69;;;14.48;100.00
37202;BME280;37799;52.390;6.136;2023-05-09T02:58:03;101610.31;;;14.43;100.00
37202;BME280;37799;52.390;6.136;2023-05-09T03:00:28;101596.47;;;14.41;100.00
37202;BME280;37799;52.390;6.136;2023-05-09T03:02:54;101592.38;;;14.34;100.00
37202;BME280;37799;52.390;6.136;2023-05-09T03:05:20;101593.16;;;14.36;100.00
37202;BME280;37799;52.390;6.136;2023-05-09T03:07:45;101593.16;;;14.36;100.00
37202;BME280;37799;52.390;6.136;2023-05-09T03:10:11;101595.81;;;14.34;100.00
37202;BME280;37799;52.390;6.136;2023-05-09T03:12:37;101588.72;;;14.39;100.00
37202;BME280;37799;52.390;6.136;2023-05-09T03:15:06;101586.06;;;14.41;100.00
37202;BME280;37799;52.390;6.136;2023-05-09T03:17:32;101581.63;;;14.46;100.00
37202;BME280;37799;52.390;6.136;2023-05-09T03:19:57;101578.97;;;14.48;100.00
37202;BME280;37799;52.390;6.136;2023-05-09T03:22:22;101575.50;;;14.47;100.00
37202;BME280;37799;52.390;6.136;2023-05-09T03:24:48;101573.69;;;14.49;100.00
37202;BME280;37799;52.390;6.136;2023-05-09T03:27:13;101581.34;;;14.54;100.00
37202;BME280;37799;52.390;6.136;2023-05-09T03:29:39;101580.50;;;14.53;100.00
37202;BME280;37799;52.390;6.136;2023-05-09T03:32:04;101574.41;;;14.54;100.00
37202;BME280;37799;52.390;6.136;2023-05-09T03:34:29;101577.00;;;14.54;100.00
37202;BME280;37799;52.390;6.136;2023-05-09T03:36:55;101578.31;;;14.67;100.00
37202;BME280;37799;52.390;6.136;2023-05-09T03:39:20;101569.00;;;14.60;100.00
37202;BME280;37799;52.390;6.136;2023-05-09T03:41:46;101563.06;;;14.55;100.00
37202;BME280;37799;52.390;6.136;2023-05-09T03:44:11;101570.03;;;14.55;100.00
37202;BME280;37799;52.390;6.136;2023-05-09T03:46:36;101566.44;;;14.59;100.00
37202;BME280;37799;52.390;6.136;2023-05-09T03:49:02;101559.38;;;14.62;100.00
37202;BME280;37799;52.390;6.136;2023-05-09T03:51:29;101557.75;;;14.58;100.00
37202;BME280;37799;52.390;6.136;2023-05-09T03:53:54;101562.78;;;14.64;100.00
37202;BME280;37799;52.390;6.136;2023-05-09T03:56:20;101562.03;;;14.61;100.00
37202;BME280;37799;52.390;6.136;2023-05-09T03:58:46;101556.66;;;14.65;100.00
37202;BME280;37799;52.390;6.136;2023-05-09T04:01:11;101561.88;;;14.65;100.00
37202;BME280;37799;52.390;6.136;2023-05-09T04:03:37;101555.88;;;14.63;100.00
37202;BME280;37799;52.390;6.136;2023-05-09T04:06:03;101554.22;;;14.61;100.00
37202;BME280;37799;52.390;6.136;2023-05-09T04:08:28;101556.78;;;14.62;100.00
37202;BME280;37799;52.390;6.136;2023-05-09T04:10:54;101554.06;;;14.65;100.00
37202;BME280;37799;52.390;6.136;2023-05-09T04:13:19;101556.50;;;14.71;100.00
37202;BME280;37799;52.390;6.136;2023-05-09T04:15:44;101555.81;;;14.65;100.00
37202;BME280;37799;52.390;6.136;2023-05-09T04:18:10;101552.25;;;14.67;100.00
37202;BME280;37799;52.390;6.136;2023-05-09T04:20:35;101546.03;;;14.73;100.00
37202;BME280;37799;52.390;6.136;2023-05-09T04:23:00;101542.56;;;14.71;100.00
37202;BME280;37799;52.390;6.136;2023-05-09T04:25:26;101535.66;;;14.71;100.00
37202;BME280;37799;52.390;6.136;2023-05-09T04:27:51;101540.84;;;14.71;100.00
37202;BME280;37799;52.390;6.136;2023-05-09T04:30:17;101534.75;;;14.71;100.00
37202;BME280;37799;52.390;6.136;2023-05-09T04:32:42;101529.53;;;14.71;100.00
37202;BME280;37799;52.390;6.136;2023-05-09T04:35:10;101529.53;;;14.72;100.00
37202;BME280;37799;52.390;6.136;2023-05-09T04:37:36;101524.78;;;14.85;100.00
37202;BME280;37799;52.390;6.136;2023-05-09T04:40:01;101522.09;;;14.87;100.00
37202;BME280;37799;52.390;6.136;2023-05-09T04:42:28;101518.78;;;14.82;100.00
37202;BME280;37799;52.390;6.136;2023-05-09T04:44:53;101517.81;;;14.84;100.00
37202;BME280;37799;52.390;6.136;2023-05-09T04:47:19;101527.31;;;14.87;100.00
37202;BME280;37799;52.390;6.136;2023-05-09T04:49:44;101515.78;;;14.94;100.00
37202;BME280;37799;52.390;6.136;2023-05-09T04:52:09;101523.41;;;15.00;100.00
37202;BME280;37799;52.390;6.136;2023-05-09T04:54:34;101521.03;;;14.92;100.00
37202;BME280;37799;52.390;6.136;2023-05-09T04:57:00;101510.09;;;14.81;100.00
37202;BME280;37799;52.390;6.136;2023-05-09T04:59:26;101508.28;;;14.85;100.00
37202;BME280;37799;52.390;6.136;2023-05-09T05:01:51;101502.03;;;14.89;100.00
37202;BME280;37799;52.390;6.136;2023-05-09T05:04:16;101509.13;;;14.85;100.00
37202;BME280;37799;52.390;6.136;2023-05-09T05:06:41;101508.16;;;14.88;100.00
37202;BME280;37799;52.390;6.136;2023-05-09T05:09:07;101511.34;;;14.96;100.00
37202;BME280;37799;52.390;6.136;2023-05-09T05:11:34;101501.78;;;14.96;100.00
37202;BME280;37799;52.390;6.136;2023-05-09T05:13:59;101502.63;;;14.97;100.00
37202;BME280;37799;52.390;6.136;2023-05-09T05:16:24;101504.66;;;14.89;100.00
37202;BME280;37799;52.390;6.136;2023-05-09T05:18:49;101505.16;;;15.00;100.00
37202;BME280;37799;52.390;6.136;2023-05-09T05:21:15;101499.22;;;14.95;100.00
37202;BME280;37799;52.390;6.136;2023-05-09T05:23:40;101503.34;;;15.02;100.00
37202;BME280;37799;52.390;6.136;2023-05-09T05:26:05;101500.72;;;15.02;100.00
37202;BME280;37799;52.390;6.136;2023-05-09T05:28:31;101496.69;;;15.18;100.00
37202;BME280;37799;52.390;6.136;2023-05-09T05:30:56;101495.56;;;15.00;100.00
37202;BME280;37799;52.390;6.136;2023-05-09T05:33:21;101499.28;;;14.93;100.00
37202;BME280;37799;52.390;6.136;2023-05-09T05:35:47;101484.59;;;14.91;100.00
37202;BME280;37799;52.390;6.136;2023-05-09T05:38:12;101487.09;;;14.94;100.00
37202;BME280;37799;52.390;6.136;2023-05-09T05:40:37;101483.16;;;15.07;100.00
37202;BME280;37799;52.390;6.136;2023-05-09T05:43:03;101481.69;;;15.25;100.00
37202;BME280;37799;52.390;6.136;2023-05-09T05:45:28;101484.97;;;15.30;100.00
37202;BME280;37799;52.390;6.136;2023-05-09T05:47:54;101479.00;;;15.51;100.00
37202;BME280;37799;52.390;6.136;2023-05-09T05:50:20;101472.97;;;15.49;100.00
37202;BME280;37799;52.390;6.136;2023-05-09T05:52:45;101471.44;;;15.44;100.00
37202;BME280;37799;52.390;6.136;2023-05-09T05:55:11;101466.22;;;15.44;100.00
37202;BME280;37799;52.390;6.136;2023-05-09T05:57:36;101473.13;;;15.45;100.00
37202;BME280;37799;52.390;6.136;2023-05-09T06:00:03;101468.16;;;15.63;100.00
37202;BME280;37799;52.390;6.136;2023-05-09T06:02:31;101470.69;;;15.65;100.00
37202;BME280;37799;52.390;6.136;2023-05-09T06:04:57;101466.44;;;15.62;100.00
37202;BME280;37799;52.390;6.136;2023-05-09T06:07:22;101470.88;;;15.59;100.00
37202;BME280;37799;52.390;6.136;2023-05-09T06:09:47;101449.69;;;15.68;100.00
37202;BME280;37799;52.390;6.136;2023-05-09T06:12:13;101453.00;;;15.95;100.00
37202;BME280;37799;52.390;6.136;2023-05-09T06:14:41;101461.03;;;15.90;100.00
37202;BME280;37799;52.390;6.136;2023-05-09T06:17:06;101456.72;;;15.89;100.00
37202;BME280;37799;52.390;6.136;2023-05-09T06:19:32;101445.56;;;16.08;100.00
37202;BME280;37799;52.390;6.136;2023-05-09T06:21:57;101447.19;;;16.32;100.00
37202;BME280;37799;52.390;6.136;2023-05-09T06:24:22;101450.84;;;16.28;100.00
37202;BME280;37799;52.390;6.136;2023-05-09T06:26:49;101441.19;;;16.30;100.00
37202;BME280;37799;52.390;6.136;2023-05-09T06:29:14;101439.56;;;16.28;100.00
37202;BME280;37799;52.390;6.136;2023-05-09T06:31:39;101433.44;;;16.27;100.00
37202;BME280;37799;52.390;6.136;2023-05-09T06:34:05;101436.25;;;16.22;100.00
37202;BME280;37799;52.390;6.136;2023-05-09T06:36:30;101425.19;;;16.38;100.00
37202;BME280;37799;52.390;6.136;2023-05-09T06:38:56;101428.72;;;16.37;100.00
37202;BME280;37799;52.390;6.136;2023-05-09T06:41:22;101426.56;;;16.46;100.00
37202;BME280;37799;52.390;6.136;2023-05-09T06:43:47;101422.41;;;16.42;100.00
37202;BME280;37799;52.390;6.136;2023-05-09T06:46:12;101423.19;;;16.44;100.00
37202;BME280;37799;52.390;6.136;2023-05-09T06:48:38;101418.88;;;16.43;100.00
37202;BME280;37799;52.390;6.136;2023-05-09T06:51:03;101413.50;;;16.46;100.00
37202;BME280;37799;52.390;6.136;2023-05-09T06:53:28;101413.75;;;16.40;100.00
37202;BME280;37799;52.390;6.136;2023-05-09T06:55:54;101413.88;;;16.37;100.00
37202;BME280;37799;52.390;6.136;2023-05-09T06:58:19;101408.47;;;16.42;100.00
37202;BME280;37799;52.390;6.136;2023-05-09T07:00:44;101401.22;;;16.48;100.00
37202;BME280;37799;52.390;6.136;2023-05-09T07:03:11;101395.44;;;16.40;100.00
37202;BME280;37799;52.390;6.136;2023-05-09T07:05:36;101397.63;;;16.51;100.00
37202;BME280;37799;52.390;6.136;2023-05-09T07:08:02;101396.84;;;16.71;100.00
37202;BME280;37799;52.390;6.136;2023-05-09T07:10:28;101393.31;;;16.72;100.00
37202;BME280;37799;52.390;6.136;2023-05-09T07:12:53;101386.56;;;16.87;100.00
37202;BME280;37799;52.390;6.136;2023-05-09T07:15:18;101377.84;;;17.06;100.00
37202;BME280;37799;52.390;6.136;2023-05-09T07:17:44;101379.16;;;17.35;100.00
37202;BME280;37799;52.390;6.136;2023-05-09T07:20:09;101382.06;;;17.48;100.00
37202;BME280;37799;52.390;6.136;2023-05-09T07:22:35;101373.50;;;17.63;100.00
37202;BME280;37799;52.390;6.136;2023-05-09T07:25:00;101372.66;;;17.82;100.00
37202;BME280;37799;52.390;6.136;2023-05-09T07:27:25;101373.75;;;17.95;100.00
37202;BME280;37799;52.390;6.136;2023-05-09T07:29:51;101366.38;;;18.03;100.00
37202;BME280;37799;52.390;6.136;2023-05-09T07:32:20;101360.81;;;18.09;100.00
37202;BME280;37799;52.390;6.136;2023-05-09T07:34:45;101372.28;;;18.25;100.00
37202;BME280;37799;52.390;6.136;2023-05-09T07:37:11;101367.88;;;18.26;100.00
37202;BME280;37799;52.390;6.136;2023-05-09T07:39:36;101360.09;;;18.24;100.00
37202;BME280;37799;52.390;6.136;2023-05-09T07:42:01;101361.47;;;18.32;100.00
37202;BME280;37799;52.390;6.136;2023-05-09T07:44:27;101360.53;;;18.15;100.00
37202;BME280;37799;52.390;6.136;2023-05-09T07:46:53;101366.72;;;18.14;100.00
37202;BME280;37799;52.390;6.136;2023-05-09T07:49:20;101354.19;;;17.85;100.00
37202;BME280;37799;52.390;6.136;2023-05-09T07:51:45;101358.34;;;17.89;100.00
37202;BME280;37799;52.390;6.136;2023-05-09T07:54:10;101355.22;;;17.81;100.00
37202;BME280;37799;52.390;6.136;2023-05-09T07:56:36;101342.38;;;17.76;100.00
37202;BME280;37799;52.390;6.136;2023-05-09T07:59:01;101344.13;;;17.76;100.00
37202;BME280;37799;52.390;6.136;2023-05-09T08:01:27;101352.47;;;17.84;100.00
37202;BME280;37799;52.390;6.136;2023-05-09T08:03:52;101338.97;;;17.74;100.00
37202;BME280;37799;52.390;6.136;2023-05-09T08:06:18;101332.31;;;17.86;100.00
37202;BME280;37799;52.390;6.136;2023-05-09T08:08:43;101335.69;;;17.88;100.00
37202;BME280;37799;52.390;6.136;2023-05-09T08:11:08;101330.88;;;17.79;100.00
37202;BME280;37799;52.390;6.136;2023-05-09T08:13:34;101331.06;;;17.93;100.00
37202;BME280;37799;52.390;6.136;2023-05-09T08:16:00;101320.75;;;18.07;100.00
37202;BME280;37799;52.390;6.136;2023-05-09T08:18:25;101321.47;;;18.11;100.00
37202;BME280;37799;52.390;6.136;2023-05-09T08:20:50;101314.59;;;18.08;100.00
37202;BME280;37799;52.390;6.136;2023-05-09T08:23:16;101317.66;;;18.34;100.00
37202;BME280;37799;52.390;6.136;2023-05-09T08:25:41;101306.25;;;18.52;100.00
37202;BME280;37799;52.390;6.136;2023-05-09T08:28:07;101304.22;;;18.74;100.00
37202;BME280;37799;52.390;6.136;2023-05-09T08:30:32;101295.72;;;18.86;100.00
37202;BME280;37799;52.390;6.136;2023-05-09T08:32:57;101294.63;;;18.91;100.00
37202;BME280;37799;52.390;6.136;2023-05-09T08:35:23;101300.59;;;19.10;100.00
37202;BME280;37799;52.390;6.136;2023-05-09T08:37:49;101295.94;;;19.15;100.00
37202;BME280;37799;52.390;6.136;2023-05-09T08:40:14;101299.06;;;19.37;100.00
37202;BME280;37799;52.390;6.136;2023-05-09T08:42:42;101292.78;;;19.40;100.00
37202;BME280;37799;52.390;6.136;2023-05-09T08:45:11;101287.28;;;19.13;100.00
37202;BME280;37799;52.390;6.136;2023-05-09T08:47:39;101287.81;;;19.35;100.00
37202;BME280;37799;52.390;6.136;2023-05-09T08:50:05;101283.75;;;19.45;100.00
37202;BME280;37799;52.390;6.136;2023-05-09T08:52:32;101285.78;;;19.40;100.00
37202;BME280;37799;52.390;6.136;2023-05-09T08:55:02;101283.66;;;19.47;100.00
37202;BME280;37799;52.390;6.136;2023-05-09T08:57:31;101282.91;;;19.61;100.00
37202;BME280;37799;52.390;6.136;2023-05-09T08:59:59;101288.97;;;19.77;100.00
37202;BME280;37799;52.390;6.136;2023-05-09T09:02:24;101281.56;;;19.54;100.00
37202;BME280;37799;52.390;6.136;2023-05-09T09:04:50;101272.75;;;19.70;100.00
37202;BME280;37799;52.390;6.136;2023-05-09T09:07:15;101277.06;;;20.01;100.00
37202;BME280;37799;52.390;6.136;2023-05-09T09:09:46;101272.63;;;20.32;100.00
37202;BME280;37799;52.390;6.136;2023-05-09T09:12:14;101271.66;;;20.49;100.00
37202;BME280;37799;52.390;6.136;2023-05-09T09:14:42;101267.88;;;20.67;100.00
37202;BME280;37799;52.390;6.136;2023-05-09T09:17:11;101264.59;;;20.78;100.00
37202;BME280;37799;52.390;6.136;2023-05-09T09:19:40;101257.75;;;20.75;100.00
37202;BME280;37799;52.390;6.136;2023-05-09T09:22:07;101247.59;;;20.98;100.00
37202;BME280;37799;52.390;6.136;2023-05-09T09:24:36;101244.06;;;21.11;100.00
37202;BME280;37799;52.390;6.136;2023-05-09T09:27:05;101249.28;;;20.99;100.00
37202;BME280;37799;52.390;6.136;2023-05-09T09:29:31;101240.16;;;20.76;100.00
37202;BME280;37799;52.390;6.136;2023-05-09T09:32:01;101232.28;;;20.47;100.00
37202;BME280;37799;52.390;6.136;2023-05-09T09:34:26;101238.91;;;20.24;100.00
37202;BME280;37799;52.390;6.136;2023-05-09T09:36:52;101237.66;;;20.16;100.00
37202;BME280;37799;52.390;6.136;2023-05-09T09:39:17;101236.56;;;19.90;100.00
37202;BME280;37799;52.390;6.136;2023-05-09T09:41:50;101238.75;;;19.97;100.00
37202;BME280;37799;52.390;6.136;2023-05-09T09:44:21;101231.16;;;19.93;100.00
37202;BME280;37799;52.390;6.136;2023-05-09T09:46:47;101234.03;;;19.42;100.00
37202;BME280;37799;52.390;6.136;2023-05-09T09:49:16;101232.50;;;19.54;100.00
37202;BME280;37799;52.390;6.136;2023-05-09T09:51:42;101226.47;;;19.68;100.00
37202;BME280;37799;52.390;6.136;2023-05-09T09:54:11;101229.34;;;19.48;100.00
37202;BME280;37799;52.390;6.136;2023-05-09T09:56:48;101233.94;;;19.60;100.00
37202;BME280;37799;52.390;6.136;2023-05-09T09:59:18;101229.53;;;19.44;100.00
37202;BME280;37799;52.390;6.136;2023-05-09T10:01:53;101226.13;;;19.27;100.00
37202;BME280;37799;52.390;6.136;2023-05-09T10:04:19;101222.28;;;19.18;100.00
37202;BME280;37799;52.390;6.136;2023-05-09T10:06:55;101217.88;;;19.03;100.00
37202;BME280;37799;52.390;6.136;2023-05-09T10:09:25;101219.97;;;18.96;100.00
37202;BME280;37799;52.390;6.136;2023-05-09T10:11:51;101210.06;;;18.85;100.00
37202;BME280;37799;52.390;6.136;2023-05-09T10:14:19;101220.06;;;18.95;100.00
37202;BME280;37799;52.390;6.136;2023-05-09T10:16:47;101220.22;;;18.92;100.00
37202;BME280;37799;52.390;6.136;2023-05-09T10:19:18;101217.88;;;19.03;100.00
37202;BME280;37799;52.390;6.136;2023-05-09T10:21:50;101221.91;;;18.77;100.00
37202;BME280;37799;52.390;6.136;2023-05-09T10:24:20;101220.50;;;19.03;100.00
37202;BME280;37799;52.390;6.136;2023-05-09T10:26:48;101214.72;;;18.80;100.00
37202;BME280;37799;52.390;6.136;2023-05-09T10:29:15;101210.31;;;18.81;100.00
37202;BME280;37799;52.390;6.136;2023-05-09T10:31:47;101206.19;;;18.93;100.00
37202;BME280;37799;52.390;6.136;2023-05-09T10:34:16;101209.03;;;18.72;100.00
37202;BME280;37799;52.390;6.136;2023-05-09T10:36:42;101203.19;;;18.67;100.00
37202;BME280;37799;52.390;6.136;2023-05-09T10:39:09;101200.09;;;19.08;100.00
37202;BME280;37799;52.390;6.136;2023-05-09T10:41:35;101201.50;;;19.13;100.00
37202;BME280;37799;52.390;6.136;2023-05-09T10:44:01;101192.41;;;19.51;100.00
37202;BME280;37799;52.390;6.136;2023-05-09T10:46:27;101197.59;;;19.82;100.00
37202;BME280;37799;52.390;6.136;2023-05-09T10:48:53;101186.47;;;19.63;100.00
37202;BME280;37799;52.390;6.136;2023-05-09T10:51:18;101193.97;;;19.55;100.00
37202;BME280;37799;52.390;6.136;2023-05-09T10:53:46;101188.66;;;19.70;100.00
37202;BME280;37799;52.390;6.136;2023-05-09T10:56:28;101194.72;;;19.57;100.00
37202;BME280;37799;52.390;6.136;2023-05-09T10:58:53;101192.44;;;19.35;100.00
37202;BME280;37799;52.390;6.136;2023-05-09T11:01:36;101177.34;;;19.38;100.00
37202;BME280;37799;52.390;6.136;2023-05-09T11:04:11;101177.66;;;19.64;100.00
37202;BME280;37799;52.390;6.136;2023-05-09T11:09:25;101167.53;;;19.72;100.00
37202;BME280;37799;52.390;6.136;2023-05-09T11:12:08;101164.94;;;19.86;100.00
37202;BME280;37799;52.390;6.136;2023-05-09T11:14:45;101151.03;;;19.70;100.00
37202;BME280;37799;52.390;6.136;2023-05-09T11:22:16;101162.28;;;19.72;100.00
37202;BME280;37799;52.390;6.136;2023-05-09T11:24:48;101156.66;;;19.48;100.00
37202;BME280;37799;52.390;6.136;2023-05-09T11:27:25;101156.69;;;19.32;100.00
37202;BME280;37799;52.390;6.136;2023-05-09T11:29:53;101153.50;;;19.11;100.00
37202;BME280;37799;52.390;6.136;2023-05-09T11:32:27;101147.94;;;19.02;100.00
37202;BME280;37799;52.390;6.136;2023-05-09T11:35:05;101148.09;;;19.14;100.00
37202;BME280;37799;52.390;6.136;2023-05-09T11:37:31;101151.16;;;18.91;100.00
37202;BME280;37799;52.390;6.136;2023-05-09T11:39:58;101138.31;;;19.32;100.00
37202;BME280;37799;52.390;6.136;2023-05-09T11:42:26;101149.56;;;19.34;100.00
37202;BME280;37799;52.390;6.136;2023-05-09T11:44:53;101143.84;;;19.28;100.00
37202;BME280;37799;52.390;6.136;2023-05-09T11:47:19;101136.50;;;19.03;100.00
37202;BME280;37799;52.390;6.136;2023-05-09T11:49:47;101138.34;;;19.17;100.00
37202;BME280;37799;52.390;6.136;2023-05-09T11:52:12;101137.78;;;18.96;100.00
37202;BME280;37799;52.390;6.136;2023-05-09T11:54:38;101140.91;;;18.86;100.00
37202;BME280;37799;52.390;6.136;2023-05-09T11:57:04;101127.56;;;18.75;100.00
37202;BME280;37799;52.390;6.136;2023-05-09T11:59:32;101134.22;;;18.65;100.00
37202;BME280;37799;52.390;6.136;2023-05-09T12:02:02;101124.75;;;18.94;100.00
37202;BME280;37799;52.390;6.136;2023-05-09T12:04:29;101125.91;;;18.57;100.00
37202;BME280;37799;52.390;6.136;2023-05-09T12:06:57;101120.34;;;18.63;100.00
37202;BME280;37799;52.390;6.136;2023-05-09T12:09:27;101116.47;;;18.70;100.00
37202;BME280;37799;52.390;6.136;2023-05-09T12:11:56;101119.91;;;18.55;100.00
37202;BME280;37799;52.390;6.136;2023-05-09T12:14:26;101115.69;;;18.19;100.00
37202;BME280;37799;52.390;6.136;2023-05-09T12:16:51;101112.38;;;17.83;100.00
37202;BME280;37799;52.390;6.136;2023-05-09T12:19:22;101110.69;;;17.82;100.00
37202;BME280;37799;52.390;6.136;2023-05-09T12:21:47;101110.56;;;17.85;100.00
37202;BME280;37799;52.390;6.136;2023-05-09T12:24:12;101105.00;;;17.74;100.00
37202;BME280;37799;52.390;6.136;2023-05-09T12:26:38;101110.47;;;17.69;100.00
37202;BME280;37799;52.390;6.136;2023-05-09T12:29:04;101108.56;;;17.73;100.00
37202;BME280;37799;52.390;6.136;2023-05-09T12:31:30;101105.22;;;17.69;100.00
37202;BME280;37799;52.390;6.136;2023-05-09T12:33:55;101099.59;;;17.59;100.00
37202;BME280;37799;52.390;6.136;2023-05-09T12:36:21;101104.91;;;17.92;100.00
37202;BME280;37799;52.390;6.136;2023-05-09T12:38:55;101100.38;;;17.79;100.00
37202;BME280;37799;52.390;6.136;2023-05-09T12:41:20;101093.53;;;17.59;100.00
37202;BME280;37799;52.390;6.136;2023-05-09T12:43:48;101097.22;;;17.20;100.00
37202;BME280;37799;52.390;6.136;2023-05-09T12:46:17;101095.88;;;17.29;100.00
37202;BME280;37799;52.390;6.136;2023-05-09T12:48:42;101096.59;;;17.32;100.00
37202;BME280;37799;52.390;6.136;2023-05-09T12:51:08;101094.47;;;17.04;100.00
37202;BME280;37799;52.390;6.136;2023-05-09T12:53:39;101087.78;;;17.16;100.00